CDT,Max TemperatureF,Mean TemperatureF,Min TemperatureF,Max Dew PointF,MeanDew PointF,Min DewpointF,Max Humidity, Mean Humidity, Min Humidity, Max Sea Level PressureIn, Mean Sea Level PressureIn, Min Sea Level PressureIn, Max VisibilityMiles, Mean VisibilityMiles, Min VisibilityMiles, Max Wind SpeedMPH, Mean Wind SpeedMPH, Max Gust SpeedMPH,PrecipitationIn, CloudCover, Events, WindDirDegrees
2013-4-1,75,63,51,59,54,50,97,72,46,30.09,30.02,29.93,10,7,1,10,4,15,0.00,5,Fog,320
2013-4-2,79,63,46,54,47,41,93,61,28,30.14,30.07,30.02,10,7,0,15,6,21,0.00,5,Fog,129
2013-4-3,64,59,53,58,53,48,93,83,72,30.09,29.98,29.83,10,6,3,44,11,53,1.31,8,Rain-Thunderstorm,34
2013-4-4,71,62,52,56,52,48,93,77,61,29.97,29.93,29.88,10,7,1,15,6,18,T,8,Rain,307
2013-4-5,69,56,43,48,45,44,93,68,42,30.12,30.05,29.97,10,9,6,21,9,24,0.00,6,,336
2013-4-6,74,57,40,50,43,36,92,59,25,30.18,30.13,30.10,10,10,9,16,6,23,0.00,1,,161
2013-4-7,76,62,47,59,52,45,97,70,43,30.15,30.09,30.04,10,10,9,15,6,21,0.00,3,,148
2013-4-8,79,68,57,66,61,57,100,79,58,30.08,30.03,29.99,10,5,0,22,10,28,0.00,6,Fog,127
2013-4-9,82,75,67,68,66,63,93,76,58,30.09,30.04,29.98,10,9,7,26,14,35,0.00,6,,140
2013-4-10,80,73,65,67,65,62,93,78,62,30.03,29.97,29.89,10,10,7,23,13,30,0.00,6,,136
2013-4-11,81,69,57,70,66,56,93,81,69,29.89,29.74,29.61,10,6,0,31,14,46,1.38,8,Fog-Rain-Thunderstorm,191
2013-4-12,75,63,50,55,47,42,93,62,31,29.99,29.90,29.81,10,10,10,18,9,24,0.00,4,,337
2013-4-13,81,64,47,54,47,42,86,56,26,30.06,29.99,29.93,10,10,10,13,6,16,0.00,2,,81
2013-4-14,66,62,57,63,57,54,100,87,73,29.97,29.85,29.77,10,8,2,31,8,41,1.12,7,Rain-Thunderstorm,69
2013-4-15,78,71,63,70,66,62,93,84,74,30.05,29.96,29.85,10,6,2,16,6,18,T,8,,129
2013-4-16,84,75,66,68,67,64,97,78,58,30.13,30.09,30.03,10,9,5,16,7,21,0.00,5,,135
2013-4-17,82,75,67,70,66,61,93,76,58,30.13,30.08,30.02,10,10,3,20,10,24,0.00,4,,128
2013-4-18,79,73,66,70,67,63,93,80,67,30.01,29.93,29.87,10,9,7,22,13,28,T,7,Rain,146
2013-4-19,75,59,42,70,52,41,96,89,82,30.19,29.99,29.82,10,7,1,16,9,25,1.07,7,Rain-Thunderstorm,310
2013-4-20,69,55,41,41,38,31,89,59,28,30.27,30.20,30.13,10,10,10,18,8,25,0.00,0,,26
2013-4-21,74,60,45,50,42,38,89,60,31,30.23,30.18,30.12,10,10,10,16,7,24,0.00,0,,47
2013-4-22,79,65,50,61,54,45,89,67,45,30.15,30.10,30.05,10,9,7,14,7,17,0.00,3,,95
2013-4-23,77,68,58,62,59,55,93,75,56,30.13,30.09,30.05,10,10,6,18,9,23,0.00,4,,123
2013-4-24,73,66,58,66,63,60,93,83,73,30.16,30.10,30.04,10,6,1,25,6,33,0.22,6,Fog-Rain,166
2013-4-25,76,65,54,56,51,43,93,65,37,30.30,30.25,30.17,10,9,4,16,9,20,0.00,5,,13
2013-4-26,80,67,53,56,47,39,84,59,33,30.31,30.26,30.22,10,10,10,13,7,22,0.00,1,,107
2013-4-27,81,69,57,66,61,55,93,72,51,30.22,30.14,30.06,10,9,3,17,7,22,0.00,2,,155
2013-4-28,81,73,65,68,65,60,97,77,56,30.09,30.03,29.97,10,6,0,18,5,25,T,6,Fog-Rain-Thunderstorm,168
2013-4-29,81,73,64,66,62,57,93,69,45,30.00,29.96,29.90,10,9,6,14,5,18,0.01,5,Rain-Thunderstorm,79
2013-4-30,82,73,63,69,64,61,100,76,51,29.97,29.94,29.90,10,6,0,16,7,22,0.37,6,Fog-Rain-Thunderstorm,93